createdAt,value
2023-02-06T00:00:40.259Z,103092.53
2023-02-06T00:01:45.556Z,103088.09
2023-02-06T00:02:47.378Z,103089.81
2023-02-06T00:03:49.252Z,103089.88
2023-02-06T00:04:51.028Z,103103.22
2023-02-06T00:05:57.649Z,103112.16
2023-02-06T00:06:59.579Z,103118.38
2023-02-06T00:08:01.557Z,103118.38
2023-02-06T00:09:04.589Z,103114.91
2023-02-06T00:10:06.894Z,103104.38
2023-02-06T00:11:12.044Z,103097.19
2023-02-06T00:12:14.009Z,103107.75
2023-02-06T00:13:15.840Z,103061.03
2023-02-06T00:14:17.596Z,103106.13
2023-02-06T00:15:19.616Z,103108.84
2023-02-06T00:16:27.618Z,103110.59
2023-02-06T00:17:29.432Z,103114.91
2023-02-06T00:18:31.508Z,103102.78
2023-02-06T00:19:33.252Z,103116.78
2023-02-06T00:20:35.086Z,103115.97
2023-02-06T00:21:36.964Z,103112.38
2023-02-06T00:22:39.078Z,103111.53
2023-02-06T00:23:41.342Z,103113.31
2023-02-06T00:24:43.119Z,103111.69
2023-02-06T00:25:45.082Z,103111.59
2023-02-06T00:26:47.112Z,103100.59
2023-02-06T00:27:48.937Z,103116.91
2023-02-06T00:28:50.904Z,103116.13
2023-02-06T00:29:53.210Z,103111.75
2023-02-06T00:30:55.104Z,103097.63
2023-02-06T00:31:56.978Z,103109.84
2023-02-06T00:32:58.981Z,103108.13
2023-02-06T00:34:00.780Z,103105.47
2023-02-06T00:35:02.572Z,103107.28
2023-02-06T00:36:05.332Z,103109.06
2023-02-06T00:37:07.136Z,103112.63
2023-02-06T00:38:10.888Z,103122.41
2023-02-06T00:39:12.704Z,103127.75
2023-02-06T00:40:15.693Z,103113.06
2023-02-06T00:41:17.501Z,103126.00
2023-02-06T00:42:19.295Z,103126.91
2023-02-06T00:43:21.257Z,103120.00
2023-02-06T00:44:23.414Z,103129.63
2023-02-06T00:45:25.201Z,103126.25
2023-02-06T00:46:26.996Z,103128.78
2023-02-06T00:47:28.859Z,103125.38
2023-02-06T00:48:30.654Z,103129.63
2023-02-06T00:49:32.432Z,103135.03
2023-02-06T00:50:34.373Z,103144.78
2023-02-06T00:51:38.851Z,103142.16
2023-02-06T00:52:40.669Z,103137.72
2023-02-06T00:53:42.429Z,103132.38
2023-02-06T00:54:44.203Z,103121.13
2023-02-06T00:55:45.963Z,103122.66
2023-02-06T00:56:48.371Z,103108.91
2023-02-06T00:57:50.133Z,103129.78
2023-02-06T00:58:51.921Z,103124.44
2023-02-06T00:59:54.417Z,103135.09
2023-02-06T01:00:56.252Z,103137.78
2023-02-06T01:01:58.632Z,103131.50
2023-02-06T01:03:00.879Z,103133.38
2023-02-06T01:04:02.732Z,103128.03
2023-02-06T01:05:05.324Z,103126.31
2023-02-06T01:06:09.881Z,103120.03
2023-02-06T01:07:11.643Z,103126.31
2023-02-06T01:08:13.483Z,103116.53
2023-02-06T01:09:15.286Z,103107.09
2023-02-06T01:10:17.175Z,103115.75
2023-02-06T01:11:23.212Z,103114.88
2023-02-06T01:12:24.975Z,103105.06
2023-02-06T01:13:26.893Z,103119.25
2023-02-06T01:14:28.813Z,103110.63
2023-02-06T01:15:30.734Z,103117.53
2023-02-06T01:16:32.800Z,103115.81
2023-02-06T01:17:34.770Z,103113.13
2023-02-06T01:18:36.739Z,103115.81
2023-02-06T01:19:38.911Z,103124.75
2023-02-06T01:20:41.216Z,103125.63
2023-02-06T01:21:43.168Z,103119.56
2023-02-06T01:22:45.069Z,103132.69
2023-02-06T01:23:50.108Z,103117.84
2023-02-06T01:24:52.299Z,103116.09
2023-02-06T01:25:54.168Z,103126.47
2023-02-06T01:26:56.014Z,103119.41
2023-02-06T01:27:59.285Z,103123.94
2023-02-06T01:29:02.405Z,103127.50
2023-02-06T01:30:06.485Z,103123.94
2023-02-06T01:31:11.388Z,103123.09
2023-02-06T01:32:13.342Z,103121.38
2023-02-06T01:33:15.176Z,103139.94
2023-02-06T01:34:18.735Z,103131.97
2023-02-06T01:35:20.538Z,103139.00
2023-02-06T01:36:23.271Z,103125.19
2023-02-06T01:37:25.095Z,103123.16
2023-02-06T01:38:26.881Z,103125.03
2023-02-06T01:39:28.681Z,103116.25
2023-02-06T01:40:32.454Z,103123.16
2023-02-06T01:41:34.936Z,103121.44
2023-02-06T01:42:38.468Z,103115.22
2023-02-06T01:44:06.930Z,103118.78
2023-02-06T01:45:26.945Z,103116.44
2023-02-06T01:46:28.732Z,103114.97
2023-02-06T01:47:30.704Z,103117.69
2023-02-06T01:48:35.706Z,103124.91
2023-02-06T01:49:46.099Z,103121.38
2023-02-06T01:50:56.506Z,103121.38
2023-02-06T01:52:23.564Z,103128.19
2023-02-06T01:53:26.965Z,103100.25
2023-02-06T01:54:28.848Z,103107.94
2023-02-06T01:55:30.779Z,103119.72
2023-02-06T01:56:39.296Z,103116.25
2023-02-06T01:57:41.996Z,103104.66
2023-02-06T01:58:46.599Z,103111.88
2023-02-06T01:59:54.669Z,103117.19
2023-02-06T02:00:58.746Z,103123.31
2023-02-06T02:02:00.610Z,103127.78
2023-02-06T02:03:03.730Z,103113.88
2023-02-06T02:04:08.807Z,103124.41
2023-02-06T02:05:11.751Z,103134.13
2023-02-06T02:06:16.576Z,103130.72
2023-02-06T02:07:28.937Z,103134.13
2023-02-06T02:08:40.895Z,103132.31
2023-02-06T02:09:42.715Z,103125.50
2023-02-06T02:10:45.210Z,103123.78
2023-02-06T02:11:47.219Z,103135.06
2023-02-06T02:12:49.723Z,103136.00
2023-02-06T02:13:53.336Z,103139.63
2023-02-06T02:14:55.974Z,103133.41
2023-02-06T02:16:00.604Z,103141.41
2023-02-06T02:17:33.005Z,103147.38
2023-02-06T02:19:08.329Z,103140.09
2023-02-06T02:20:39.564Z,103154.06
2023-02-06T02:22:18.422Z,103149.53
2023-02-06T02:23:36.712Z,103158.47
2023-02-06T02:25:07.638Z,103161.38
2023-02-06T02:26:34.933Z,103163.97
2023-02-06T02:27:58.146Z,103167.41
2023-02-06T02:29:47.104Z,103163.00
2023-02-06T02:31:03.625Z,103158.47
2023-02-06T02:32:20.624Z,103163.16
2023-02-06T02:33:37.563Z,103165.03
2023-02-06T02:34:51.984Z,103160.69
2023-02-06T02:36:03.752Z,103165.19
2023-02-06T02:37:18.084Z,103160.00
2023-02-06T02:38:32.584Z,103176.78
2023-02-06T02:39:45.931Z,103177.78
2023-02-06T02:41:04.297Z,103184.00
2023-02-06T02:42:26.714Z,103186.56
2023-02-06T02:43:44.195Z,103190.13
2023-02-06T02:44:55.105Z,103189.34
2023-02-06T02:46:05.261Z,103184.44
2023-02-06T02:47:11.848Z,103196.53
2023-02-06T02:48:37.222Z,103197.38
2023-02-06T02:49:41.703Z,103200.94
2023-02-06T02:50:44.958Z,103208.94
2023-02-06T02:51:49.526Z,103184.44
2023-02-06T02:52:52.750Z,103199.34
2023-02-06T02:53:58.377Z,103201.13
2023-02-06T02:55:00.636Z,103202.06
2023-02-06T02:56:03.056Z,103197.03
2023-02-06T02:57:12.525Z,103197.78
2023-02-06T02:58:19.512Z,103196.75
2023-02-06T02:59:31.792Z,103196.75
2023-02-06T03:01:11.558Z,103187.47
2023-02-06T03:02:19.995Z,103173.34
2023-02-06T03:03:23.786Z,103180.41
2023-02-06T03:04:30.871Z,103177.09
2023-02-06T03:05:38.028Z,103165.00
2023-02-06T03:07:01.857Z,103157.00
2023-02-06T03:08:32.869Z,103160.66
2023-02-06T03:09:39.652Z,103165.25
2023-02-06T03:10:47.203Z,103154.19
2023-02-06T03:12:14.632Z,103163.47
2023-02-06T03:13:42.055Z,103162.44
2023-02-06T03:14:52.888Z,103166.13
2023-02-06T03:16:36.559Z,103164.31
2023-02-06T03:17:44.782Z,103164.25
2023-02-06T03:18:59.909Z,103163.75
2023-02-06T03:20:05.187Z,103173.47
2023-02-06T03:21:11.072Z,103178.88
2023-02-06T03:22:15.376Z,103175.66
2023-02-06T03:23:23.276Z,103187.09
2023-02-06T03:24:29.846Z,103185.38
2023-02-06T03:25:38.129Z,103191.50
2023-02-06T03:26:42.030Z,103194.16
2023-02-06T03:27:45.351Z,103200.44
2023-02-06T03:28:53.666Z,103196.97
2023-02-06T03:29:58.341Z,103194.50
2023-02-06T03:31:05.749Z,103209.38
2023-02-06T03:32:35.082Z,103220.59
2023-02-06T03:33:43.679Z,103203.16
2023-02-06T03:34:53.930Z,103210.88
2023-02-06T03:35:57.746Z,103216.28
2023-02-06T03:37:00.089Z,103212.81
2023-02-06T03:38:02.891Z,103208.50
2023-02-06T03:39:04.852Z,103197.13
2023-02-06T03:40:08.276Z,103202.38
2023-02-06T03:41:12.001Z,103199.69
2023-02-06T03:42:15.719Z,103189.25
2023-02-06T03:43:20.065Z,103189.28
2023-02-06T03:44:29.202Z,103194.38
2023-02-06T03:45:36.468Z,103200.59
2023-02-06T03:46:41.759Z,103198.72
2023-02-06T03:47:46.270Z,103192.81
2023-02-06T03:48:54.083Z,103193.63
2023-02-06T03:50:00.149Z,103159.03
2023-02-06T03:51:08.718Z,103193.53
2023-02-06T03:52:15.629Z,103198.72
2023-02-06T03:53:18.997Z,103199.66
2023-02-06T03:54:23.832Z,103204.19
2023-02-06T03:55:25.888Z,103207.69
2023-02-06T03:56:43.552Z,103202.38
2023-02-06T03:57:50.489Z,103186.81
2023-02-06T03:58:52.417Z,103213.75
2023-02-06T03:59:54.555Z,103216.56
2023-02-06T04:00:57.263Z,103233.50
2023-02-06T04:02:03.041Z,103234.44
2023-02-06T04:03:05.505Z,103234.34
2023-02-06T04:04:07.574Z,103228.19
2023-02-06T04:05:09.445Z,103230.09
2023-02-06T04:06:11.216Z,103222.84
2023-02-06T04:07:22.343Z,103233.50
2023-02-06T04:08:24.191Z,103235.16
2023-02-06T04:09:26.101Z,103222.13
2023-02-06T04:10:27.936Z,103231.69
2023-02-06T04:11:30.308Z,103237.03
2023-02-06T04:12:32.275Z,103229.97
2023-02-06T04:13:34.067Z,103227.34
2023-02-06T04:14:37.023Z,103227.34
2023-02-06T04:15:38.818Z,103229.16
2023-02-06T04:16:40.691Z,103225.56
2023-02-06T04:17:57.600Z,103230.91
2023-02-06T04:19:00.992Z,103235.16
2023-02-06T04:20:04.504Z,103248.47
2023-02-06T04:21:07.363Z,103247.69
2023-02-06T04:22:12.304Z,103242.66
2023-02-06T04:23:14.120Z,103262.81
2023-02-06T04:24:15.950Z,103255.78
2023-02-06T04:25:17.811Z,103258.44
2023-02-06T04:26:19.585Z,103258.44
2023-02-06T04:27:21.451Z,103257.00
2023-02-06T04:28:23.346Z,103261.16
2023-02-06T04:29:25.639Z,103258.66
2023-02-06T04:30:27.450Z,103261.16
2023-02-06T04:31:29.254Z,103258.50
2023-02-06T04:32:31.100Z,103254.00
2023-02-06T04:33:33.001Z,103246.94
2023-02-06T04:34:36.353Z,103253.16
2023-02-06T04:35:38.284Z,103247.81
2023-02-06T04:36:40.396Z,103240.75
2023-02-06T04:37:42.435Z,103236.28
2023-02-06T04:38:44.264Z,103242.50
2023-02-06T04:39:47.535Z,103236.66
2023-02-06T04:40:49.396Z,103248.69
2023-02-06T04:41:51.712Z,103249.59
2023-02-06T04:42:53.609Z,103254.00
2023-02-06T04:43:55.378Z,103250.53
2023-02-06T04:44:57.204Z,103252.28
2023-02-06T04:45:59.234Z,103262.94
2023-02-06T04:47:01.934Z,103266.53
2023-02-06T04:48:03.995Z,103258.78
2023-02-06T04:49:05.869Z,103270.94
2023-02-06T04:50:07.967Z,103256.13
2023-02-06T04:51:09.865Z,103246.69
2023-02-06T04:52:11.735Z,103264.91
2023-02-06T04:53:13.565Z,103270.09
2023-02-06T04:54:17.442Z,103275.44
2023-02-06T04:55:19.292Z,103278.94
2023-02-06T04:56:21.145Z,103265.59
2023-02-06T04:57:23.810Z,103271.00
2023-02-06T04:58:25.737Z,103271.00
2023-02-06T04:59:27.628Z,103264.91
2023-02-06T05:00:29.456Z,103262.19
2023-02-06T05:01:31.353Z,103260.31
2023-02-06T05:02:39.551Z,103266.53
2023-02-06T05:03:41.716Z,103254.13
2023-02-06T05:04:43.452Z,103266.59
2023-02-06T05:05:45.257Z,103265.72
2023-02-06T05:06:47.224Z,103265.72
2023-02-06T05:07:49.002Z,103272.78
2023-02-06T05:08:50.872Z,103251.97
2023-02-06T05:09:52.663Z,103272.84
2023-02-06T05:10:55.437Z,103261.31
2023-02-06T05:11:57.360Z,103271.13
2023-02-06T05:12:59.149Z,103264.91
2023-02-06T05:14:00.909Z,103268.47
2023-02-06T05:15:03.541Z,103271.13
2023-02-06T05:16:13.469Z,103267.72
2023-02-06T05:17:15.446Z,103270.09
2023-02-06T05:18:17.532Z,103270.09
2023-02-06T05:19:19.311Z,103277.31
2023-02-06T05:20:21.252Z,103277.31
2023-02-06T05:21:23.982Z,103273.84
2023-02-06T05:22:26.293Z,103272.91
2023-02-06T05:23:28.482Z,103274.72
2023-02-06T05:24:30.434Z,103273.84
2023-02-06T05:25:32.297Z,103241.13
2023-02-06T05:26:34.281Z,103278.31
2023-02-06T05:27:36.074Z,103278.31
2023-02-06T05:28:37.919Z,103280.09
2023-02-06T05:29:39.899Z,103272.13
2023-02-06T05:30:41.792Z,103273.94
2023-02-06T05:31:43.707Z,103276.59
2023-02-06T05:32:45.662Z,103270.34
2023-02-06T05:33:51.858Z,103270.38
2023-02-06T05:34:53.923Z,103271.19
2023-02-06T05:36:05.242Z,103267.81
2023-02-06T05:37:06.994Z,103271.97
2023-02-06T05:38:08.872Z,103273.00
2023-02-06T05:39:10.696Z,103277.44
2023-02-06T05:40:13.938Z,103281.94
2023-02-06T05:41:16.536Z,103268.13
2023-02-06T05:42:18.381Z,103291.72
2023-02-06T05:43:20.157Z,103297.91
2023-02-06T05:44:22.021Z,103284.78
2023-02-06T05:45:24.922Z,103284.78
2023-02-06T05:46:27.053Z,103283.94
2023-02-06T05:47:29.112Z,103283.81
2023-02-06T05:48:31.148Z,103271.75
2023-02-06T05:49:33.118Z,103300.63
2023-02-06T05:50:34.961Z,103262.44
2023-02-06T05:51:39.629Z,103298.91
2023-02-06T05:52:41.832Z,103288.38
2023-02-06T05:53:43.655Z,103291.84
2023-02-06T05:54:45.585Z,103302.50
2023-02-06T05:55:47.394Z,103314.97
2023-02-06T05:56:49.285Z,103312.31
2023-02-06T05:57:51.099Z,103312.31
2023-02-06T05:58:52.934Z,103310.50
2023-02-06T05:59:54.713Z,103305.25
2023-02-06T06:00:56.627Z,103301.72
2023-02-06T06:01:58.707Z,103299.19
2023-02-06T06:03:00.491Z,103303.44
2023-02-06T06:04:02.947Z,103299.97
2023-02-06T06:05:05.103Z,103299.03
2023-02-06T06:06:07.678Z,103299.97
2023-02-06T06:07:09.494Z,103294.66
2023-02-06T06:08:11.349Z,103287.53
2023-02-06T06:09:13.211Z,103293.72
2023-02-06T06:10:15.155Z,103293.72
2023-02-06T06:11:17.046Z,103302.50
2023-02-06T06:12:18.832Z,103291.97
2023-02-06T06:13:20.829Z,103289.41
2023-02-06T06:14:23.473Z,103284.72
2023-02-06T06:15:25.277Z,103288.91
2023-02-06T06:16:27.258Z,103290.63
2023-02-06T06:17:29.152Z,103272.19
2023-02-06T06:18:31.085Z,103285.19
2023-02-06T06:19:32.959Z,103293.88
2023-02-06T06:20:35.000Z,103284.88
2023-02-06T06:21:36.959Z,103289.22
2023-02-06T06:22:38.796Z,103284.66
2023-02-06T06:23:40.658Z,103286.44
2023-02-06T06:24:42.474Z,103286.13
2023-02-06T06:25:47.091Z,103288.63
2023-02-06T06:26:48.873Z,103279.56
2023-02-06T06:27:50.824Z,103284.69
2023-02-06T06:28:52.754Z,103286.28
2023-02-06T06:29:54.596Z,103289.75
2023-02-06T06:31:04.492Z,103278.84
2023-02-06T06:32:06.825Z,103283.97
2023-02-06T06:33:08.644Z,103270.56
2023-02-06T06:34:10.767Z,103273.09
2023-02-06T06:35:12.541Z,103271.38
2023-02-06T06:36:14.816Z,103271.06
2023-02-06T06:37:16.666Z,103279.78
2023-02-06T06:38:18.552Z,103261.34
2023-02-06T06:39:20.467Z,103269.69
2023-02-06T06:40:22.293Z,103264.25
2023-02-06T06:41:24.123Z,103260.59
2023-02-06T06:42:26.057Z,103261.31
2023-02-06T06:43:27.948Z,103252.28
2023-02-06T06:44:29.833Z,103254.81
2023-02-06T06:45:31.683Z,103254.66
2023-02-06T06:46:33.520Z,103257.25
2023-02-06T06:47:35.402Z,103253.56
2023-02-06T06:48:38.378Z,103261.50
2023-02-06T06:49:40.217Z,103261.41
2023-02-06T06:50:42.559Z,103258.63
2023-02-06T06:51:44.415Z,103266.47
2023-02-06T06:52:46.235Z,103265.53
2023-02-06T06:53:48.255Z,103263.72
2023-02-06T06:54:51.976Z,103263.66
2023-02-06T06:55:54.086Z,103258.16
2023-02-06T06:56:55.852Z,103262.56
2023-02-06T06:57:57.674Z,103265.25
2023-02-06T06:58:59.494Z,103258.88
2023-02-06T07:00:01.399Z,103258.00
2023-02-06T07:01:03.396Z,103249.53
2023-02-06T07:02:05.580Z,103254.31
2023-02-06T07:03:07.840Z,103249.78
2023-02-06T07:04:09.760Z,103245.34
2023-02-06T07:05:11.958Z,103244.38
2023-02-06T07:06:14.363Z,103237.22
2023-02-06T07:07:16.237Z,103232.75
2023-02-06T07:08:18.013Z,103234.50
2023-02-06T07:09:19.852Z,103233.66
2023-02-06T07:10:22.184Z,103241.56
2023-02-06T07:11:26.161Z,103241.50
2023-02-06T07:12:28.308Z,103216.91
2023-02-06T07:13:30.201Z,103231.66
2023-02-06T07:14:31.953Z,103222.81
2023-02-06T07:15:34.073Z,103229.00
2023-02-06T07:16:36.034Z,103230.72
2023-02-06T07:17:38.890Z,103228.06
2023-02-06T07:18:41.982Z,103230.72
2023-02-06T07:19:48.132Z,103223.50
2023-02-06T07:20:51.484Z,103215.47
2023-02-06T07:21:53.597Z,103216.44
2023-02-06T07:22:55.371Z,103199.00
2023-02-06T07:23:57.222Z,103215.47
2023-02-06T07:24:59.027Z,103212.81
2023-02-06T07:26:02.428Z,103203.34
2023-02-06T07:27:04.240Z,103206.53
2023-02-06T07:28:06.102Z,103216.28
2023-02-06T07:29:08.200Z,103199.78
2023-02-06T07:30:10.525Z,103214.53
2023-02-06T07:31:12.365Z,103183.88
2023-02-06T07:32:14.196Z,103226.09
2023-02-06T07:33:16.040Z,103214.63
2023-02-06T07:34:17.853Z,103216.28
2023-02-06T07:35:19.747Z,103221.63
2023-02-06T07:36:21.659Z,103211.81
2023-02-06T07:37:23.429Z,103209.13
2023-02-06T07:38:25.796Z,103209.47
2023-02-06T07:39:27.893Z,103168.50
2023-02-06T07:40:44.155Z,103205.53
2023-02-06T07:41:49.123Z,103200.88
2023-02-06T07:42:51.058Z,103207.16
2023-02-06T07:44:01.117Z,103205.59
2023-02-06T07:45:03.034Z,103209.91
2023-02-06T07:46:05.630Z,103217.00
2023-02-06T07:47:09.577Z,103212.66
2023-02-06T07:48:11.935Z,103208.19
2023-02-06T07:49:15.149Z,103207.31
2023-02-06T07:50:17.044Z,103196.94
2023-02-06T07:51:19.065Z,103210.94
2023-02-06T07:52:22.461Z,103201.19
2023-02-06T07:53:24.373Z,103204.97
2023-02-06T07:54:26.382Z,103208.34
2023-02-06T07:55:28.598Z,103209.19
2023-02-06T07:56:30.432Z,103200.41
2023-02-06T07:57:32.223Z,103203.06
2023-02-06T07:58:34.071Z,103204.81
2023-02-06T07:59:35.854Z,103200.41
2023-02-06T08:00:38.483Z,103195.16
2023-02-06T08:01:40.342Z,103198.63
2023-02-06T08:02:42.266Z,103195.06
2023-02-06T08:03:44.045Z,103189.72
2023-02-06T08:04:45.903Z,103184.38
2023-02-06T08:05:47.776Z,103188.88
2023-02-06T08:06:49.640Z,103189.72
2023-02-06T08:07:52.187Z,103175.91
2023-02-06T08:08:57.561Z,103184.38
2023-02-06T08:09:59.407Z,103188.78
2023-02-06T08:11:06.212Z,103192.41
2023-02-06T08:12:10.895Z,103180.75
2023-02-06T08:13:13.957Z,103182.50
2023-02-06T08:14:15.865Z,103182.59
2023-02-06T08:15:17.930Z,103161.81
2023-02-06T08:16:21.819Z,103174.66
2023-02-06T08:17:23.782Z,103183.53
2023-02-06T08:18:26.276Z,103173.78
2023-02-06T08:19:28.039Z,103172.84
2023-02-06T08:20:30.050Z,103178.25
2023-02-06T08:21:31.820Z,103186.09
2023-02-06T08:22:33.564Z,103191.44
2023-02-06T08:23:35.533Z,103179.91
2023-02-06T08:24:37.452Z,103174.59
2023-02-06T08:25:39.318Z,103175.53
2023-02-06T08:26:41.236Z,103169.25
2023-02-06T08:27:43.309Z,103143.38
2023-02-06T08:28:47.428Z,103163.97
2023-02-06T08:29:49.372Z,103171.91
2023-02-06T08:30:51.221Z,103150.16
2023-02-06T08:31:53.181Z,103155.00
2023-02-06T08:32:55.017Z,103167.41
2023-02-06T08:33:57.194Z,103162.22
2023-02-06T08:34:59.033Z,103167.41
2023-02-06T08:36:04.682Z,103172.84
2023-02-06T08:37:06.533Z,103153.59
2023-02-06T08:38:08.943Z,103178.09
2023-02-06T08:39:13.448Z,103177.31
2023-02-06T08:40:15.276Z,103177.25
2023-02-06T08:41:19.792Z,103179.03
2023-02-06T08:42:21.816Z,103188.78
2023-02-06T08:43:23.692Z,103184.38
2023-02-06T08:44:25.693Z,103180.88
2023-02-06T08:45:27.448Z,103182.66
2023-02-06T08:46:32.193Z,103177.31
2023-02-06T08:47:34.273Z,103177.31
2023-02-06T08:48:36.136Z,103148.09
2023-02-06T08:49:38.263Z,103183.53
2023-02-06T08:50:40.012Z,103181.72
2023-02-06T08:51:42.203Z,103188.00
2023-02-06T08:52:44.080Z,103184.47
2023-02-06T08:53:46.012Z,103189.72
2023-02-06T08:54:51.109Z,103188.00
2023-02-06T08:56:01.588Z,103185.25
2023-02-06T08:57:03.481Z,103186.03
2023-02-06T08:58:05.320Z,103187.06
2023-02-06T08:59:08.259Z,103195.06
2023-02-06T09:00:10.573Z,103193.34
2023-02-06T09:01:14.491Z,103197.84
2023-02-06T09:02:16.519Z,103188.47
2023-02-06T09:03:18.608Z,103208.41
2023-02-06T09:04:20.972Z,103208.50
2023-02-06T09:05:23.400Z,103215.63
2023-02-06T09:06:26.422Z,103220.03
2023-02-06T09:07:28.216Z,103216.53
2023-02-06T09:08:31.156Z,103220.03
2023-02-06T09:09:33.004Z,103215.63
2023-02-06T09:10:34.816Z,103208.78
2023-02-06T09:11:37.290Z,103215.63
2023-02-06T09:12:39.088Z,103214.69
2023-02-06T09:13:40.925Z,103205.84
2023-02-06T09:14:42.780Z,103205.91
2023-02-06T09:15:53.947Z,103211.19
2023-02-06T09:16:58.078Z,103199.47
2023-02-06T09:17:59.828Z,103201.28
2023-02-06T09:19:02.406Z,103176.03
2023-02-06T09:20:05.417Z,103171.53
2023-02-06T09:21:18.927Z,103187.06
2023-02-06T09:22:20.717Z,103189.56
2023-02-06T09:23:22.469Z,103188.72
2023-02-06T09:24:24.473Z,103180.75
2023-02-06T09:25:26.295Z,103187.00
2023-02-06T09:26:34.054Z,103182.59
2023-02-06T09:27:36.828Z,103184.31
2023-02-06T09:28:38.756Z,103182.50
2023-02-06T09:29:40.640Z,103186.09
2023-02-06T09:30:42.427Z,103168.84
2023-02-06T09:31:44.697Z,103186.09
2023-02-06T09:32:46.589Z,103184.31
2023-02-06T09:33:48.616Z,103189.72
2023-02-06T09:34:50.404Z,103196.78
2023-02-06T09:36:05.242Z,103191.38
2023-02-06T09:37:07.024Z,103198.34
2023-02-06T09:38:08.909Z,103189.56
2023-02-06T09:39:10.799Z,103192.22
2023-02-06T09:40:21.776Z,103196.72
2023-02-06T09:41:49.166Z,103190.44
2023-02-06T09:42:53.524Z,103184.84
2023-02-06T09:44:11.429Z,103162.22
2023-02-06T09:45:16.890Z,103177.00
2023-02-06T09:46:27.007Z,103169.75
2023-02-06T09:47:38.838Z,103172.53
2023-02-06T09:48:42.976Z,103158.72
2023-02-06T09:49:49.170Z,103173.38
2023-02-06T09:51:26.209Z,103174.78
2023-02-06T09:52:53.713Z,103174.66
2023-02-06T09:53:58.237Z,103173.84
2023-02-06T09:55:09.278Z,103160.13
2023-02-06T09:56:40.182Z,103161.91
2023-02-06T09:57:51.852Z,103180.13
2023-02-06T09:59:15.202Z,103171.16
2023-02-06T10:00:31.424Z,103180.94
2023-02-06T10:02:05.381Z,103179.84
2023-02-06T10:03:07.139Z,103177.31
2023-02-06T10:04:47.274Z,103164.09
2023-02-06T10:05:54.567Z,103167.59
2023-02-06T10:07:19.117Z,103164.97
2023-02-06T10:08:39.373Z,103169.44
2023-02-06T10:09:51.837Z,103160.03
2023-02-06T10:10:56.103Z,103167.72
2023-02-06T10:12:04.779Z,103160.81
2023-02-06T10:13:32.590Z,103171.16
2023-02-06T10:14:58.856Z,103168.44
2023-02-06T10:16:23.721Z,103164.97
2023-02-06T10:17:38.070Z,103167.59
2023-02-06T10:18:44.865Z,103170.38
2023-02-06T10:20:06.481Z,103171.16
2023-02-06T10:21:21.069Z,103171.44
2023-02-06T10:22:40.416Z,103158.13
2023-02-06T10:23:58.165Z,103164.03
2023-02-06T10:25:23.572Z,103162.09
2023-02-06T10:26:25.458Z,103166.63
2023-02-06T10:27:27.237Z,103173.06
2023-02-06T10:28:31.074Z,103135.06
2023-02-06T10:29:36.413Z,103155.78
2023-02-06T10:31:08.741Z,103176.50
2023-02-06T10:32:19.570Z,103133.19
2023-02-06T10:33:33.400Z,103171.16
2023-02-06T10:34:47.446Z,103177.31
2023-02-06T10:36:39.940Z,103182.25
2023-02-06T10:38:05.825Z,103186.59
2023-02-06T10:39:58.754Z,103179.56
2023-02-06T10:41:03.231Z,103182.19
2023-02-06T10:42:16.561Z,103178.88
2023-02-06T10:43:37.023Z,103155.72
2023-02-06T10:44:51.387Z,103183.34
2023-02-06T10:46:30.784Z,103178.78
2023-02-06T10:47:44.786Z,103178.72
2023-02-06T10:48:51.660Z,103177.06
2023-02-06T10:50:02.053Z,103174.66
2023-02-06T10:51:42.500Z,103167.59
2023-02-06T10:52:45.530Z,103165.38
2023-02-06T10:54:35.251Z,103163.66
2023-02-06T10:55:53.186Z,103159.88
2023-02-06T10:56:58.160Z,103162.69
2023-02-06T10:58:13.019Z,103174.31
2023-02-06T10:59:28.284Z,103164.66
2023-02-06T11:00:31.699Z,103137.72
2023-02-06T11:01:39.447Z,103159.47
2023-02-06T11:03:06.832Z,103168.38
2023-02-06T11:04:53.434Z,103164.16
2023-02-06T11:05:55.672Z,103166.00
2023-02-06T11:07:02.227Z,103172.59
2023-02-06T11:08:09.656Z,103168.22
2023-02-06T11:09:11.734Z,103170.25
2023-02-06T11:10:19.951Z,103180.00
2023-02-06T11:11:36.193Z,103178.09
2023-02-06T11:12:42.214Z,103193.19
2023-02-06T11:13:46.642Z,103189.63
2023-02-06T11:14:50.642Z,103180.94
2023-02-06T11:16:04.926Z,103189.75
2023-02-06T11:17:06.807Z,103178.34
2023-02-06T11:18:14.594Z,103187.91
2023-02-06T11:19:23.104Z,103180.78
2023-02-06T11:20:29.502Z,103172.94
2023-02-06T11:21:54.047Z,103171.66
2023-02-06T11:22:56.608Z,103179.50
2023-02-06T11:24:12.982Z,103177.78
2023-02-06T11:25:34.055Z,103171.41
2023-02-06T11:26:45.255Z,103158.63
2023-02-06T11:27:47.490Z,103174.50
2023-02-06T11:28:52.432Z,103185.97
2023-02-06T11:29:54.624Z,103168.50
2023-02-06T11:31:02.630Z,103175.34
2023-02-06T11:32:07.148Z,103170.88
2023-02-06T11:33:20.252Z,103173.53
2023-02-06T11:34:32.441Z,103169.84
2023-02-06T11:35:40.497Z,103170.88
2023-02-06T11:36:42.998Z,103165.38
2023-02-06T11:37:44.933Z,103172.50
2023-02-06T11:38:55.779Z,103167.25
2023-02-06T11:40:19.190Z,103166.06
2023-02-06T11:41:22.184Z,103158.91
2023-02-06T11:42:24.964Z,103159.09
2023-02-06T11:43:31.348Z,103149.66
2023-02-06T11:44:39.337Z,103157.34
2023-02-06T11:45:41.392Z,103153.75
2023-02-06T11:46:43.308Z,103149.34
2023-02-06T11:47:45.100Z,103145.88
2023-02-06T11:49:08.272Z,103147.69
2023-02-06T11:50:13.061Z,103158.91
2023-02-06T11:51:16.908Z,103149.25
2023-02-06T11:52:33.210Z,103147.34
2023-02-06T11:53:36.241Z,103147.34
2023-02-06T11:54:38.100Z,103152.78
2023-02-06T11:55:42.637Z,103135.03
2023-02-06T11:57:03.413Z,103135.19
2023-02-06T11:58:14.260Z,103132.97
2023-02-06T11:59:21.525Z,103131.25
2023-02-06T12:00:24.145Z,103136.59
2023-02-06T12:01:25.976Z,103138.50
2023-02-06T12:02:34.809Z,103131.41
2023-02-06T12:03:51.469Z,103134.72
2023-02-06T12:05:17.219Z,103133.94
2023-02-06T12:06:32.287Z,103132.72
2023-02-06T12:07:57.432Z,103136.09
2023-02-06T12:09:09.288Z,103130.03
2023-02-06T12:10:17.670Z,103130.31
2023-02-06T12:11:27.258Z,103134.53
2023-02-06T12:12:34.221Z,103133.75
2023-02-06T12:13:43.047Z,103126.06
2023-02-06T12:14:59.142Z,103110.22
2023-02-06T12:16:04.200Z,103127.47
2023-02-06T12:17:32.851Z,103112.72
2023-02-06T12:18:41.047Z,103114.91
2023-02-06T12:19:52.343Z,103113.16
2023-02-06T12:21:00.368Z,103115.84
2023-02-06T12:22:10.863Z,103112.38
2023-02-06T12:23:22.545Z,103114.97
2023-02-06T12:24:36.108Z,103106.09
2023-02-06T12:25:43.300Z,103101.09
2023-02-06T12:26:48.004Z,103108.78
2023-02-06T12:27:52.328Z,103120.41
2023-02-06T12:29:15.187Z,103115.06
2023-02-06T12:30:27.115Z,103112.22
2023-02-06T12:31:39.318Z,103109.56
2023-02-06T12:32:46.701Z,103106.00
2023-02-06T12:33:54.934Z,103105.16
2023-02-06T12:35:14.550Z,103100.75
2023-02-06T12:36:22.620Z,103100.53